EGOV 020520Z AUTO 30007KT 9999 SCT060/// 12/09 Q1016
From batch tds/metars/production/2022/10/2/h05_m49_metars.cache.csv.gz
Observed at (about 2 hours ago)
Identifier EGOV
EGOV 020350Z AUTO 28009KT 9999 OVC056/// 13/09 Q1015
From batch tds/metars/production/2022/10/2/h04_m25_metars.cache.csv.gz
Observed at (about 3 hours ago)
Identifier EGOV
EGOV 020150Z AUTO 27012KT 9999 FEW023/// 13/09 Q1014
From batch tds/metars/production/2022/10/2/h02_m29_metars.cache.csv.gz
Observed at (about 5 hours ago)
Identifier EGOV
EGOV 020120Z AUTO 27012KT 9999 FEW020/// 14/10 Q1014
From batch tds/metars/production/2022/10/2/h01_m58_metars.cache.csv.gz
Observed at (about 6 hours ago)
Identifier EGOV
EGOV 020020Z AUTO 27014KT 9999 NCD 14/09 Q1013
From batch tds/metars/production/2022/10/2/h00_m59_metars.cache.csv.gz
Observed at (about 7 hours ago)
Identifier EGOV
EGOV 012350Z AUTO 27013KT 9999 BKN021/// 14/09 Q1013
From batch tds/metars/production/2022/10/2/h00_m21_metars.cache.csv.gz
Observed at (about 7 hours ago)
Identifier EGOV
EGOV 012320Z AUTO 27015KT 9999 OVC023/// 14/10 Q1013
From batch tds/metars/production/2022/10/1/h23_m51_metars.cache.csv.gz
Observed at (about 8 hours ago)
Identifier EGOV
EGOV 012220Z AUTO 26014KT 9999 FEW071/// 14/09 Q1012
From batch tds/metars/production/2022/10/1/h22_m59_metars.cache.csv.gz
Observed at (about 9 hours ago)
Identifier EGOV
EGOV 012150Z AUTO 27013KT 9999 BKN061/// 14/09 Q1011
From batch tds/metars/production/2022/10/1/h22_m22_metars.cache.csv.gz
Observed at (about 9 hours ago)
Identifier EGOV
EGOV 012120Z AUTO 25017KT 9999 OVC055/// 15/10 Q1011
From batch tds/metars/production/2022/10/1/h21_m52_metars.cache.csv.gz
Observed at (about 10 hours ago)
Identifier EGOV
EGOV 012020Z AUTO 24016KT 9999 NCD 14/10 Q1010
From batch tds/metars/production/2022/10/1/h20_m55_metars.cache.csv.gz
Observed at (about 11 hours ago)
Identifier EGOV
EGOV 011950Z AUTO 25017KT 9999 NCD 15/10 Q1010
From batch tds/metars/production/2022/10/1/h20_m27_metars.cache.csv.gz
Observed at (about 11 hours ago)
Identifier EGOV
EGOV 011850Z AUTO 24018KT 9999 NCD 15/11 Q1009
From batch tds/metars/production/2022/10/1/h19_m26_metars.cache.csv.gz
Observed at (about 12 hours ago)
Identifier EGOV
EGOV 011820Z AUTO 23016KT 9999 NCD 15/11 Q1009
From batch tds/metars/production/2022/10/1/h18_m51_metars.cache.csv.gz
Observed at (about 13 hours ago)
Identifier EGOV
EGOV 011750Z AUTO 24014KT 9999 NCD 15/10 Q1008
From batch tds/metars/production/2022/10/1/h18_m22_metars.cache.csv.gz
Observed at (about 13 hours ago)
Identifier EGOV
EGOV 011720Z AUTO 24017KT 9999 NCD 15/11 Q1008
From batch tds/metars/production/2022/10/1/h17_m58_metars.cache.csv.gz
Observed at (about 14 hours ago)
Identifier EGOV
EGOV 011650Z AUTO 24016KT 9999 NCD 15/11 Q1007
From batch tds/metars/production/2022/10/1/h17_m24_metars.cache.csv.gz
Observed at (about 14 hours ago)
Identifier EGOV
EGOV 011620Z AUTO 24016KT 9999 SCT063/// 16/11 Q1007
From batch tds/metars/production/2022/10/1/h16_m56_metars.cache.csv.gz
Observed at (about 15 hours ago)
Identifier EGOV
EGOV 011550Z AUTO 24017KT 9999 // FEW064/// 16/11 Q1007
From batch tds/metars/production/2022/10/1/h16_m29_metars.cache.csv.gz
Observed at (about 15 hours ago)
Identifier EGOV
EGOV 011450Z AUTO 21018KT 9999 BKN047/// 16/12 Q1006
From batch tds/metars/production/2022/10/1/h15_m21_metars.cache.csv.gz
Observed at (about 16 hours ago)
Identifier EGOV
EGOV 011420Z AUTO 22023KT 9999 FEW064/// 17/11 Q1006
From batch tds/metars/production/2022/10/1/h14_m58_metars.cache.csv.gz
Observed at (about 17 hours ago)
Identifier EGOV
EGOV 011350Z AUTO 22023KT 9999 NCD 17/11 Q1006
From batch tds/metars/production/2022/10/1/h14_m22_metars.cache.csv.gz
Observed at (about 17 hours ago)
Identifier EGOV
EGOV 011320Z AUTO 22019KT 9999 BKN038/// 17/12 Q1006
From batch tds/metars/production/2022/10/1/h13_m52_metars.cache.csv.gz
Observed at (about 18 hours ago)
Identifier EGOV
EGOV 011220Z AUTO 22021KT 9999 REFG OVC058/// 16/11 Q1006
From batch tds/metars/production/2022/10/1/h12_m54_metars.cache.csv.gz
Observed at (about 19 hours ago)
Identifier EGOV
EGOV 011150Z AUTO 23022KT 9999 REFG SCT059/// 16/12 Q1005
From batch tds/metars/production/2022/10/1/h12_m23_metars.cache.csv.gz
Observed at (about 19 hours ago)
Identifier EGOV
EGOV 011120Z AUTO 22021KT 8000 FEW021/// 16/11 Q1005
From batch tds/metars/production/2022/10/1/h11_m59_metars.cache.csv.gz
Observed at (about 20 hours ago)
Identifier EGOV
EGOV 010950Z AUTO 23022KT 9999 FEW061/// 15/11 Q1004
From batch tds/metars/production/2022/10/1/h10_m25_metars.cache.csv.gz
Observed at (about 21 hours ago)
Identifier EGOV
EGOV 010920Z AUTO 23021KT 9999 FEW059/// 15/11 Q1004
From batch tds/metars/production/2022/10/1/h09_m50_metars.cache.csv.gz
Observed at (about 22 hours ago)
Identifier EGOV
talk